Twr-841 — NAVY841 — position and weather

sailwx.info

Track history (hours):
 
Tides and Currents Weather Stations Pressure Air Temp Water Temp Dewpoint Dewpoint Depression Visibility Wind Speed Wind Dir Waves Ship Positions

Twr-841

Last reported at 2014-Sep-24 11:16 UTC. Time now 2014-Oct-02 04:35 UTC.
Position N 39°34' W 074°05'.

Length 39 m.

Type: Military. MMSI: 369970385.

Date/timePositionNaut miles runAvg speedWind from/ knotsBaromVisibWave heightAir tempDewpointWater temp
2014-Sep-24 11:16N 39°34' W 074°05'7 9.4
2014-Sep-24 10:31N 39°40' W 074°00'84 9.4
2014-Sep-24 01:33N 40°36' W 072°39'9 9.3
2014-Sep-24 00:33N 40°42' W 072°29'10 9.0
2014-Sep-23 23:28N 40°48' W 072°18'8 9.1
2014-Sep-23 22:33N 40°52' W 072°09'9 9.0
2014-Sep-23 21:33N 40°58' W 071°59'10 9.9
2014-Sep-23 20:33N 41°03' W 071°48'1010.2
2014-Sep-23 19:33N 41°11' W 071°40'9 9.5
2014-Sep-23 18:33N 41°18' W 071°31'10 9.5
2014-Sep-23 17:31N 41°26' W 071°24'7 0.2
2014-Sep-22 11:09N 41°32' W 071°19'0 0.0
2014-Sep-22 10:33N 41°32' W 071°19'0 0.0
2014-Sep-22 09:30N 41°32' W 071°19'0 0.0
2014-Sep-22 08:30N 41°32' W 071°19'0 0.0
2014-Sep-22 07:30N 41°32' W 071°19'0 0.0
2014-Sep-22 04:30N 41°32' W 071°19'0 0.0
2014-Sep-22 03:33N 41°32' W 071°19'0 0.0
2014-Sep-22 02:33N 41°32' W 071°19'0 0.0
2014-Sep-21 22:21N 41°32' W 071°19'0 0.0
2014-Sep-21 11:30N 41°32' W 071°19'0 0.0
2014-Sep-21 10:33N 41°32' W 071°19'0 0.0
2014-Sep-21 09:29N 41°32' W 071°19'0 0.0
2014-Sep-21 07:30N 41°32' W 071°19'0 0.0
2014-Sep-21 06:24N 41°32' W 071°19'0 0.0
2014-Sep-21 05:33N 41°32' W 071°19'0 0.0
2014-Sep-21 04:33N 41°32' W 071°19'0 0.0
2014-Sep-21 02:18N 41°32' W 071°19'0 0.0
2014-Sep-21 01:33N 41°32' W 071°19'0 0.0
2014-Sep-21 00:27N 41°32' W 071°19'0 0.0
2014-Sep-20 23:33N 41°32' W 071°19'  
2014-Sep-18 13:27N 41°32' W 071°19'0 0.0
2014-Sep-18 11:33N 41°32' W 071°19'0 0.0
2014-Sep-18 09:18N 41°32' W 071°19'0 0.0
2014-Sep-18 08:33N 41°32' W 071°19'0 0.0
2014-Sep-18 07:27N 41°32' W 071°19'0 0.0
2014-Sep-18 06:06N 41°32' W 071°19'0 0.0
2014-Sep-18 05:33N 41°32' W 071°19'0 0.0
2014-Sep-18 04:33N 41°32' W 071°19'0 0.0
2014-Sep-18 03:33N 41°32' W 071°19'0 0.0
2014-Sep-18 02:33N 41°32' W 071°19'2 0.2
2014-Sep-17 16:04N 41°34' W 071°20'2 0.4
2014-Sep-17 12:28N 41°32' W 071°19'0 0.0
2014-Sep-17 11:31N 41°32' W 071°19'0 0.0
2014-Sep-17 10:28N 41°32' W 071°19'0 0.0
2014-Sep-17 09:31N 41°32' W 071°19'0 0.0
2014-Sep-17 08:31N 41°32' W 071°19'0 0.0
2014-Sep-17 07:31N 41°32' W 071°19'0 0.0
2014-Sep-17 06:10N 41°32' W 071°19'0 0.0
2014-Sep-17 04:31N 41°32' W 071°19'0 0.0
2014-Sep-17 02:31N 41°32' W 071°19'0 0.0
2014-Sep-17 01:31N 41°32' W 071°19'2 0.2
2014-Sep-16 17:04N 41°34' W 071°20'2 0.4
2014-Sep-16 12:31N 41°32' W 071°19'0 0.0
2014-Sep-16 11:10N 41°32' W 071°19'0 0.0
2014-Sep-15 11:20N 41°32' W 071°19'0 0.0
2014-Sep-15 10:32N 41°32' W 071°19'0 0.0
2014-Sep-15 09:32N 41°32' W 071°19'0 0.0
2014-Sep-15 08:32N 41°32' W 071°19'0 0.0
2014-Sep-15 04:32N 41°32' W 071°19'0 0.0
2014-Sep-15 03:32N 41°32' W 071°19'0 0.0
2014-Sep-15 02:29N 41°32' W 071°19'0 0.0
2014-Sep-15 01:08N 41°32' W 071°19'0 0.0
2014-Sep-15 00:32N 41°32' W 071°19'  
Track history (hours):
 
Tides and Currents Weather Stations Pressure Air Temp Water Temp Dewpoint Dewpoint Depression Visibility Wind Speed Wind Dir Waves Ship Positions

Twr-841

Last reported at 2014-Sep-24 11:16 UTC. Time now 2014-Oct-02 04:35 UTC.
Position N 39°34' W 074°05'.

Length 39 m.

Type: Military. MMSI: 369970385.

Date/timePositionNaut miles runAvg speedWind from/ knotsBaromVisibWave heightAir tempDewpointWater temp
2014-Sep-24 11:16N 39°34' W 074°05'7 9.4
2014-Sep-24 10:31N 39°40' W 074°00'84 9.4
2014-Sep-24 01:33N 40°36' W 072°39'9 9.3
2014-Sep-24 00:33N 40°42' W 072°29'10 9.0
2014-Sep-23 23:28N 40°48' W 072°18'8 9.1
2014-Sep-23 22:33N 40°52' W 072°09'9 9.0
2014-Sep-23 21:33N 40°58' W 071°59'10 9.9
2014-Sep-23 20:33N 41°03' W 071°48'1010.2
2014-Sep-23 19:33N 41°11' W 071°40'9 9.5
2014-Sep-23 18:33N 41°18' W 071°31'10 9.5
2014-Sep-23 17:31N 41°26' W 071°24'7 0.2
2014-Sep-22 11:09N 41°32' W 071°19'0 0.0
2014-Sep-22 10:33N 41°32' W 071°19'0 0.0
2014-Sep-22 09:30N 41°32' W 071°19'0 0.0
2014-Sep-22 08:30N 41°32' W 071°19'0 0.0
2014-Sep-22 07:30N 41°32' W 071°19'0 0.0
2014-Sep-22 04:30N 41°32' W 071°19'0 0.0
2014-Sep-22 03:33N 41°32' W 071°19'0 0.0
2014-Sep-22 02:33N 41°32' W 071°19'0 0.0
2014-Sep-21 22:21N 41°32' W 071°19'0 0.0
2014-Sep-21 11:30N 41°32' W 071°19'0 0.0
2014-Sep-21 10:33N 41°32' W 071°19'0 0.0
2014-Sep-21 09:29N 41°32' W 071°19'0 0.0
2014-Sep-21 07:30N 41°32' W 071°19'0 0.0
2014-Sep-21 06:24N 41°32' W 071°19'0 0.0
2014-Sep-21 05:33N 41°32' W 071°19'0 0.0
2014-Sep-21 04:33N 41°32' W 071°19'0 0.0
2014-Sep-21 02:18N 41°32' W 071°19'0 0.0
2014-Sep-21 01:33N 41°32' W 071°19'0 0.0
2014-Sep-21 00:27N 41°32' W 071°19'0 0.0
2014-Sep-20 23:33N 41°32' W 071°19'  
2014-Sep-18 13:27N 41°32' W 071°19'0 0.0
2014-Sep-18 11:33N 41°32' W 071°19'0 0.0
2014-Sep-18 09:18N 41°32' W 071°19'0 0.0
2014-Sep-18 08:33N 41°32' W 071°19'0 0.0
2014-Sep-18 07:27N 41°32' W 071°19'0 0.0
2014-Sep-18 06:06N 41°32' W 071°19'0 0.0
2014-Sep-18 05:33N 41°32' W 071°19'0 0.0
2014-Sep-18 04:33N 41°32' W 071°19'0 0.0
2014-Sep-18 03:33N 41°32' W 071°19'0 0.0
2014-Sep-18 02:33N 41°32' W 071°19'2 0.2
2014-Sep-17 16:04N 41°34' W 071°20'2 0.4
2014-Sep-17 12:28N 41°32' W 071°19'0 0.0
2014-Sep-17 11:31N 41°32' W 071°19'0 0.0
2014-Sep-17 10:28N 41°32' W 071°19'0 0.0
2014-Sep-17 09:31N 41°32' W 071°19'0 0.0
2014-Sep-17 08:31N 41°32' W 071°19'0 0.0
2014-Sep-17 07:31N 41°32' W 071°19'0 0.0
2014-Sep-17 06:10N 41°32' W 071°19'0 0.0
2014-Sep-17 04:31N 41°32' W 071°19'0 0.0
2014-Sep-17 02:31N 41°32' W 071°19'0 0.0
2014-Sep-17 01:31N 41°32' W 071°19'2 0.2
2014-Sep-16 17:04N 41°34' W 071°20'2 0.4
2014-Sep-16 12:31N 41°32' W 071°19'0 0.0
2014-Sep-16 11:10N 41°32' W 071°19'0 0.0
2014-Sep-15 11:20N 41°32' W 071°19'0 0.0
2014-Sep-15 10:32N 41°32' W 071°19'0 0.0
2014-Sep-15 09:32N 41°32' W 071°19'0 0.0
2014-Sep-15 08:32N 41°32' W 071°19'0 0.0
2014-Sep-15 04:32N 41°32' W 071°19'0 0.0
2014-Sep-15 03:32N 41°32' W 071°19'0 0.0
2014-Sep-15 02:29N 41°32' W 071°19'0 0.0
2014-Sep-15 01:08N 41°32' W 071°19'0 0.0
2014-Sep-15 00:32N 41°32' W 071°19'  

Dump ship's entire track history